New Bethlehem, Pennsylvania
Current Conditions -  °F | °C
As of 8:53 PM on Saturday 25 Oct 2014 (Local Time) from KDUJ Reporting Station
Broken Clouds Broken Clouds  
Wind Chill: 57°   Ceiling: 7000
Heat Index: 57°   Visibility: 10mi
Dew Point: 43°   Wind: 12mph
Humidity: 59%   Direction: 300°WNW
Pressure: 29.7"   Gusts: NA
Location:  41°N, 79.33°W
Report Text: KDUJ 260053Z AUTO 30010KT 10SM SCT055 BKN070 14/06 A2970 RMK AO2 SLP058 T01390061 $
Loading
Personal Weather Stations






























Interactive Weather Map
Tropical Storm Tracking
New forecast layout! Learn more

10-Day Weather Forecast

Advertisements
Track Severe Weather on mobile